sensor_id;sensor_type;location;lat;lon;timestamp;P1;durP1;ratioP1;P2;durP2;ratioP2
7454;SDS011;3769;51.208;4.454;2023-06-14T00:02:06;8.7;;;5;;
7454;SDS011;3769;51.208;4.454;2023-06-14T00:07:06;11.9;;;5;;
7454;SDS011;3769;51.208;4.454;2023-06-14T00:12:06;7.3;;;4.9;;
7454;SDS011;3769;51.208;4.454;2023-06-14T00:17:06;8.7;;;5;;
7454;SDS011;3769;51.208;4.454;2023-06-14T00:22:06;8.4;;;4.6;;
7454;SDS011;3769;51.208;4.454;2023-06-14T00:27:06;7.5;;;5;;
7454;SDS011;3769;51.208;4.454;2023-06-14T00:32:06;8.5;;;4.7;;
7454;SDS011;3769;51.208;4.454;2023-06-14T00:37:06;7.4;;;4.9;;
7454;SDS011;3769;51.208;4.454;2023-06-14T00:42:06;5.6;;;5;;
7454;SDS011;3769;51.208;4.454;2023-06-14T00:47:06;9.3;;;4.9;;
7454;SDS011;3769;51.208;4.454;2023-06-14T00:52:06;9.1;;;5.2;;
7454;SDS011;3769;51.208;4.454;2023-06-14T00:57:06;7.2;;;4.7;;
7454;SDS011;3769;51.208;4.454;2023-06-14T01:02:06;8.3;;;4.7;;
7454;SDS011;3769;51.208;4.454;2023-06-14T01:07:10;12.9;;;4.9;;
7454;SDS011;3769;51.208;4.454;2023-06-14T01:12:11;6.3;;;4.6;;
7454;SDS011;3769;51.208;4.454;2023-06-14T01:17:07;7.3;;;5.1;;
7454;SDS011;3769;51.208;4.454;2023-06-14T01:22:06;10.5;;;4.5;;
7454;SDS011;3769;51.208;4.454;2023-06-14T01:27:06;8.3;;;4.7;;
7454;SDS011;3769;51.208;4.454;2023-06-14T01:32:06;10.9;;;4.8;;
7454;SDS011;3769;51.208;4.454;2023-06-14T01:37:06;7.5;;;4.9;;
7454;SDS011;3769;51.208;4.454;2023-06-14T01:42:06;7.1;;;4.9;;
7454;SDS011;3769;51.208;4.454;2023-06-14T01:47:06;8.5;;;4.9;;
7454;SDS011;3769;51.208;4.454;2023-06-14T01:52:06;9.2;;;4.5;;
7454;SDS011;3769;51.208;4.454;2023-06-14T01:57:06;6.7;;;4.4;;
7454;SDS011;3769;51.208;4.454;2023-06-14T02:02:06;8;;;4.5;;
7454;SDS011;3769;51.208;4.454;2023-06-14T02:07:06;8.7;;;4.6;;
7454;SDS011;3769;51.208;4.454;2023-06-14T02:12:06;9.9;;;4.3;;
7454;SDS011;3769;51.208;4.454;2023-06-14T02:17:06;8.1;;;4.3;;
7454;SDS011;3769;51.208;4.454;2023-06-14T02:22:06;7.8;;;4.5;;
7454;SDS011;3769;51.208;4.454;2023-06-14T02:27:06;8.4;;;4.4;;
7454;SDS011;3769;51.208;4.454;2023-06-14T02:32:06;6.1;;;4.4;;
7454;SDS011;3769;51.208;4.454;2023-06-14T02:37:06;9.4;;;4.5;;
7454;SDS011;3769;51.208;4.454;2023-06-14T02:42:06;6.5;;;3.9;;
7454;SDS011;3769;51.208;4.454;2023-06-14T02:47:06;8.9;;;4.3;;
7454;SDS011;3769;51.208;4.454;2023-06-14T02:52:06;11.3;;;4.4;;
7454;SDS011;3769;51.208;4.454;2023-06-14T02:57:06;6.9;;;4.2;;
7454;SDS011;3769;51.208;4.454;2023-06-14T03:02:06;6.1;;;4.4;;
7454;SDS011;3769;51.208;4.454;2023-06-14T03:07:06;7.8;;;4;;
7454;SDS011;3769;51.208;4.454;2023-06-14T03:12:06;7;;;4.5;;
7454;SDS011;3769;51.208;4.454;2023-06-14T03:17:06;7.6;;;3.9;;
7454;SDS011;3769;51.208;4.454;2023-06-14T03:22:06;6.8;;;4.4;;
7454;SDS011;3769;51.208;4.454;2023-06-14T03:27:06;9.3;;;4.1;;
7454;SDS011;3769;51.208;4.454;2023-06-14T03:32:06;7.7;;;4.1;;
7454;SDS011;3769;51.208;4.454;2023-06-14T03:37:06;9.4;;;4.5;;
7454;SDS011;3769;51.208;4.454;2023-06-14T03:42:06;8.6;;;4.4;;
7454;SDS011;3769;51.208;4.454;2023-06-14T03:47:06;6.2;;;4.2;;
7454;SDS011;3769;51.208;4.454;2023-06-14T03:52:06;10.2;;;4.2;;
7454;SDS011;3769;51.208;4.454;2023-06-14T03:57:06;7.2;;;4.3;;
7454;SDS011;3769;51.208;4.454;2023-06-14T04:02:06;7.9;;;4.5;;
7454;SDS011;3769;51.208;4.454;2023-06-14T04:07:06;6.2;;;4.2;;
7454;SDS011;3769;51.208;4.454;2023-06-14T04:12:07;7.9;;;4.1;;
7454;SDS011;3769;51.208;4.454;2023-06-14T04:17:06;16.1;;;4.3;;
7454;SDS011;3769;51.208;4.454;2023-06-14T04:22:06;10.8;;;5.2;;
7454;SDS011;3769;51.208;4.454;2023-06-14T04:27:06;6.4;;;4.4;;
7454;SDS011;3769;51.208;4.454;2023-06-14T04:32:06;8.5;;;4.5;;
7454;SDS011;3769;51.208;4.454;2023-06-14T04:37:06;6.1;;;4.4;;
7454;SDS011;3769;51.208;4.454;2023-06-14T04:42:06;8.8;;;4.4;;
7454;SDS011;3769;51.208;4.454;2023-06-14T04:47:06;6.9;;;4.5;;
7454;SDS011;3769;51.208;4.454;2023-06-14T04:52:06;8.4;;;5.1;;
7454;SDS011;3769;51.208;4.454;2023-06-14T04:57:06;9.1;;;4.7;;
7454;SDS011;3769;51.208;4.454;2023-06-14T05:02:06;10.8;;;4.8;;
7454;SDS011;3769;51.208;4.454;2023-06-14T05:07:07;6.8;;;4.5;;
7454;SDS011;3769;51.208;4.454;2023-06-14T05:12:06;7.5;;;4.3;;
7454;SDS011;3769;51.208;4.454;2023-06-14T05:17:06;8.1;;;4.3;;
7454;SDS011;3769;51.208;4.454;2023-06-14T05:22:06;10.1;;;5;;
7454;SDS011;3769;51.208;4.454;2023-06-14T05:27:06;10.3;;;5.2;;
7454;SDS011;3769;51.208;4.454;2023-06-14T05:32:06;10.4;;;4.9;;
7454;SDS011;3769;51.208;4.454;2023-06-14T05:37:06;9.3;;;5;;
7454;SDS011;3769;51.208;4.454;2023-06-14T05:42:07;12.9;;;5.5;;
7454;SDS011;3769;51.208;4.454;2023-06-14T05:47:06;9.6;;;5.5;;
7454;SDS011;3769;51.208;4.454;2023-06-14T05:52:06;10;;;5.2;;
7454;SDS011;3769;51.208;4.454;2023-06-14T05:57:06;11.1;;;4.9;;
7454;SDS011;3769;51.208;4.454;2023-06-14T06:02:06;7.7;;;5;;
7454;SDS011;3769;51.208;4.454;2023-06-14T06:07:06;10.6;;;4.5;;
7454;SDS011;3769;51.208;4.454;2023-06-14T06:12:06;13.7;;;4.6;;
7454;SDS011;3769;51.208;4.454;2023-06-14T06:17:06;12.8;;;5.4;;
7454;SDS011;3769;51.208;4.454;2023-06-14T06:22:06;10.5;;;4.8;;
7454;SDS011;3769;51.208;4.454;2023-06-14T06:27:06;9.2;;;4.8;;
7454;SDS011;3769;51.208;4.454;2023-06-14T06:32:06;9;;;4.6;;
7454;SDS011;3769;51.208;4.454;2023-06-14T06:37:06;8.1;;;4.8;;
7454;SDS011;3769;51.208;4.454;2023-06-14T06:42:06;13;;;5.1;;
7454;SDS011;3769;51.208;4.454;2023-06-14T06:47:06;10;;;5;;
7454;SDS011;3769;51.208;4.454;2023-06-14T06:52:07;6.9;;;4.5;;
7454;SDS011;3769;51.208;4.454;2023-06-14T06:57:06;11.2;;;5;;
7454;SDS011;3769;51.208;4.454;2023-06-14T07:02:07;15.1;;;4.9;;
7454;SDS011;3769;51.208;4.454;2023-06-14T07:07:06;9.5;;;4.5;;
7454;SDS011;3769;51.208;4.454;2023-06-14T07:12:06;9.3;;;4.9;;
7454;SDS011;3769;51.208;4.454;2023-06-14T07:17:06;19.9;;;5.7;;
7454;SDS011;3769;51.208;4.454;2023-06-14T07:22:06;13;;;5.2;;
7454;SDS011;3769;51.208;4.454;2023-06-14T07:27:06;12.2;;;4.8;;
7454;SDS011;3769;51.208;4.454;2023-06-14T07:32:07;7.7;;;5;;
7454;SDS011;3769;51.208;4.454;2023-06-14T07:37:06;8.5;;;4.7;;
7454;SDS011;3769;51.208;4.454;2023-06-14T07:42:06;9.4;;;4.8;;
7454;SDS011;3769;51.208;4.454;2023-06-14T07:47:06;12.9;;;5;;
7454;SDS011;3769;51.208;4.454;2023-06-14T07:52:06;7.9;;;4.9;;
7454;SDS011;3769;51.208;4.454;2023-06-14T07:57:06;15.8;;;5.3;;
7454;SDS011;3769;51.208;4.454;2023-06-14T08:02:06;8;;;4.6;;
7454;SDS011;3769;51.208;4.454;2023-06-14T08:07:06;9.5;;;5;;
7454;SDS011;3769;51.208;4.454;2023-06-14T08:12:06;10.4;;;5.2;;
7454;SDS011;3769;51.208;4.454;2023-06-14T08:17:06;13.6;;;5.3;;
7454;SDS011;3769;51.208;4.454;2023-06-14T08:22:06;8.1;;;4.7;;
7454;SDS011;3769;51.208;4.454;2023-06-14T08:27:06;13.1;;;5.3;;
7454;SDS011;3769;51.208;4.454;2023-06-14T08:32:06;11.2;;;5;;
7454;SDS011;3769;51.208;4.454;2023-06-14T08:37:06;9.8;;;5.1;;
7454;SDS011;3769;51.208;4.454;2023-06-14T08:42:07;6.9;;;4.8;;
7454;SDS011;3769;51.208;4.454;2023-06-14T08:47:07;22.7;;;5.8;;
7454;SDS011;3769;51.208;4.454;2023-06-14T08:52:07;9.3;;;5.1;;
7454;SDS011;3769;51.208;4.454;2023-06-14T08:57:06;6.2;;;4.4;;
7454;SDS011;3769;51.208;4.454;2023-06-14T09:02:06;6;;;4.6;;
7454;SDS011;3769;51.208;4.454;2023-06-14T09:07:06;8.9;;;4.4;;
7454;SDS011;3769;51.208;4.454;2023-06-14T09:12:08;11.6;;;4.8;;
7454;SDS011;3769;51.208;4.454;2023-06-14T09:17:06;9.1;;;4.4;;
7454;SDS011;3769;51.208;4.454;2023-06-14T09:22:06;8.4;;;4.2;;
7454;SDS011;3769;51.208;4.454;2023-06-14T09:27:06;12.4;;;4.3;;
7454;SDS011;3769;51.208;4.454;2023-06-14T09:32:06;10;;;4.2;;
7454;SDS011;3769;51.208;4.454;2023-06-14T09:37:06;11.8;;;4.5;;
7454;SDS011;3769;51.208;4.454;2023-06-14T09:42:16;7.5;;;4.1;;
7454;SDS011;3769;51.208;4.454;2023-06-14T09:47:06;9.7;;;4.5;;
7454;SDS011;3769;51.208;4.454;2023-06-14T09:52:06;20.6;;;4.4;;
7454;SDS011;3769;51.208;4.454;2023-06-14T09:57:06;7.4;;;3.7;;
7454;SDS011;3769;51.208;4.454;2023-06-14T10:02:07;6.9;;;3.8;;
7454;SDS011;3769;51.208;4.454;2023-06-14T10:07:06;7.8;;;3.4;;
7454;SDS011;3769;51.208;4.454;2023-06-14T10:12:07;6.1;;;3.5;;
7454;SDS011;3769;51.208;4.454;2023-06-14T10:17:08;7.9;;;3.7;;
7454;SDS011;3769;51.208;4.454;2023-06-14T10:22:11;7.9;;;3.3;;
7454;SDS011;3769;51.208;4.454;2023-06-14T10:27:07;7.9;;;3.6;;
7454;SDS011;3769;51.208;4.454;2023-06-14T10:32:06;5.2;;;3.3;;
7454;SDS011;3769;51.208;4.454;2023-06-14T10:37:10;8.4;;;3.5;;
7454;SDS011;3769;51.208;4.454;2023-06-14T10:42:06;6.8;;;3.5;;
7454;SDS011;3769;51.208;4.454;2023-06-14T10:47:10;10.5;;;3.6;;
7454;SDS011;3769;51.208;4.454;2023-06-14T10:52:08;4.4;;;3.2;;
7454;SDS011;3769;51.208;4.454;2023-06-14T10:57:06;6.1;;;3.3;;
7454;SDS011;3769;51.208;4.454;2023-06-14T11:02:29;6.5;;;2.8;;
7454;SDS011;3769;51.208;4.454;2023-06-14T11:07:10;5.6;;;3.4;;
7454;SDS011;3769;51.208;4.454;2023-06-14T11:12:07;11.5;;;3.2;;
7454;SDS011;3769;51.208;4.454;2023-06-14T11:17:06;7.3;;;3.3;;
7454;SDS011;3769;51.208;4.454;2023-06-14T11:22:06;5;;;3.6;;
7454;SDS011;3769;51.208;4.454;2023-06-14T11:27:06;8.5;;;3.4;;
7454;SDS011;3769;51.208;4.454;2023-06-14T11:32:07;9.5;;;3.5;;
7454;SDS011;3769;51.208;4.454;2023-06-14T11:37:06;10;;;3.6;;
7454;SDS011;3769;51.208;4.454;2023-06-14T11:42:06;6.6;;;3.3;;
7454;SDS011;3769;51.208;4.454;2023-06-14T11:47:06;7.4;;;3.4;;
7454;SDS011;3769;51.208;4.454;2023-06-14T11:52:07;10;;;3;;
7454;SDS011;3769;51.208;4.454;2023-06-14T11:57:07;10.6;;;3.2;;
7454;SDS011;3769;51.208;4.454;2023-06-14T12:02:07;10.6;;;3.5;;
7454;SDS011;3769;51.208;4.454;2023-06-14T12:07:08;6.8;;;3.4;;
7454;SDS011;3769;51.208;4.454;2023-06-14T12:12:07;6.4;;;2.7;;
7454;SDS011;3769;51.208;4.454;2023-06-14T12:17:07;5.7;;;2.9;;
7454;SDS011;3769;51.208;4.454;2023-06-14T12:22:07;8.9;;;2.7;;
7454;SDS011;3769;51.208;4.454;2023-06-14T12:27:06;4.2;;;2.7;;
7454;SDS011;3769;51.208;4.454;2023-06-14T12:32:07;5.1;;;2.6;;
7454;SDS011;3769;51.208;4.454;2023-06-14T12:37:06;17.5;;;3.2;;
7454;SDS011;3769;51.208;4.454;2023-06-14T12:42:07;5.9;;;3;;
7454;SDS011;3769;51.208;4.454;2023-06-14T12:47:07;6.7;;;2.5;;
7454;SDS011;3769;51.208;4.454;2023-06-14T12:52:07;5.1;;;2.4;;
7454;SDS011;3769;51.208;4.454;2023-06-14T12:57:07;5.3;;;2.4;;
7454;SDS011;3769;51.208;4.454;2023-06-14T13:02:11;6.6;;;2.3;;
7454;SDS011;3769;51.208;4.454;2023-06-14T13:07:07;6;;;1.8;;
7454;SDS011;3769;51.208;4.454;2023-06-14T13:12:07;5.8;;;2.2;;
7454;SDS011;3769;51.208;4.454;2023-06-14T13:17:10;4.8;;;2.1;;
7454;SDS011;3769;51.208;4.454;2023-06-14T13:22:06;4.9;;;1.9;;
7454;SDS011;3769;51.208;4.454;2023-06-14T13:27:06;17.2;;;2.9;;
7454;SDS011;3769;51.208;4.454;2023-06-14T13:32:07;9;;;2;;
7454;SDS011;3769;51.208;4.454;2023-06-14T13:37:07;9.4;;;2.1;;
7454;SDS011;3769;51.208;4.454;2023-06-14T13:42:07;6.7;;;1.9;;
7454;SDS011;3769;51.208;4.454;2023-06-14T13:47:07;23.4;;;3;;
7454;SDS011;3769;51.208;4.454;2023-06-14T13:52:07;5.4;;;2;;
7454;SDS011;3769;51.208;4.454;2023-06-14T13:57:06;4.1;;;2;;
7454;SDS011;3769;51.208;4.454;2023-06-14T14:02:07;4;;;2;;
7454;SDS011;3769;51.208;4.454;2023-06-14T14:07:07;5.9;;;2.1;;
7454;SDS011;3769;51.208;4.454;2023-06-14T14:12:07;5.8;;;2;;
7454;SDS011;3769;51.208;4.454;2023-06-14T14:17:06;2.9;;;2;;
7454;SDS011;3769;51.208;4.454;2023-06-14T14:22:07;2.8;;;2.1;;
7454;SDS011;3769;51.208;4.454;2023-06-14T14:27:07;18.8;;;2.5;;
7454;SDS011;3769;51.208;4.454;2023-06-14T14:32:07;4.4;;;2.4;;
7454;SDS011;3769;51.208;4.454;2023-06-14T14:37:07;7.8;;;2.3;;
7454;SDS011;3769;51.208;4.454;2023-06-14T14:42:06;8.1;;;2.1;;
7454;SDS011;3769;51.208;4.454;2023-06-14T14:47:07;6.7;;;2;;
7454;SDS011;3769;51.208;4.454;2023-06-14T14:52:07;7.5;;;2.2;;
7454;SDS011;3769;51.208;4.454;2023-06-14T14:57:06;2.8;;;1.7;;
7454;SDS011;3769;51.208;4.454;2023-06-14T15:02:06;5.5;;;2.1;;
7454;SDS011;3769;51.208;4.454;2023-06-14T15:07:07;2.1;;;1.9;;
7454;SDS011;3769;51.208;4.454;2023-06-14T15:12:07;4.8;;;2;;
7454;SDS011;3769;51.208;4.454;2023-06-14T15:17:07;3.2;;;1.8;;
7454;SDS011;3769;51.208;4.454;2023-06-14T15:22:07;5.7;;;1.9;;
7454;SDS011;3769;51.208;4.454;2023-06-14T15:27:07;7;;;2.4;;
7454;SDS011;3769;51.208;4.454;2023-06-14T15:32:07;9.2;;;2.2;;
7454;SDS011;3769;51.208;4.454;2023-06-14T15:37:07;3.8;;;1.9;;
7454;SDS011;3769;51.208;4.454;2023-06-14T15:42:07;3.2;;;1.9;;
7454;SDS011;3769;51.208;4.454;2023-06-14T15:47:07;3.5;;;1.8;;
7454;SDS011;3769;51.208;4.454;2023-06-14T15:52:07;7.8;;;2.1;;
7454;SDS011;3769;51.208;4.454;2023-06-14T15:57:07;6.3;;;2;;
7454;SDS011;3769;51.208;4.454;2023-06-14T16:02:07;4.8;;;2;;
7454;SDS011;3769;51.208;4.454;2023-06-14T16:07:07;3.6;;;1.8;;
7454;SDS011;3769;51.208;4.454;2023-06-14T16:12:07;4.4;;;2;;
7454;SDS011;3769;51.208;4.454;2023-06-14T16:17:07;6.9;;;2.1;;
7454;SDS011;3769;51.208;4.454;2023-06-14T16:22:07;7.5;;;2.1;;
7454;SDS011;3769;51.208;4.454;2023-06-14T16:27:07;3.2;;;1.9;;
7454;SDS011;3769;51.208;4.454;2023-06-14T16:32:07;9.5;;;2.3;;
7454;SDS011;3769;51.208;4.454;2023-06-14T16:37:07;8.2;;;1.9;;
7454;SDS011;3769;51.208;4.454;2023-06-14T16:42:07;2.1;;;1.8;;
7454;SDS011;3769;51.208;4.454;2023-06-14T16:47:07;8.3;;;1.9;;
7454;SDS011;3769;51.208;4.454;2023-06-14T16:52:07;2.8;;;2.1;;
7454;SDS011;3769;51.208;4.454;2023-06-14T16:57:07;7.6;;;1.9;;
7454;SDS011;3769;51.208;4.454;2023-06-14T17:02:07;2.8;;;1.7;;
7454;SDS011;3769;51.208;4.454;2023-06-14T17:07:07;4.6;;;1.8;;
7454;SDS011;3769;51.208;4.454;2023-06-14T17:12:07;15.6;;;2.5;;
7454;SDS011;3769;51.208;4.454;2023-06-14T17:17:07;7.1;;;1.8;;
7454;SDS011;3769;51.208;4.454;2023-06-14T17:22:07;3.2;;;1.8;;
7454;SDS011;3769;51.208;4.454;2023-06-14T17:27:07;2.4;;;1.7;;
7454;SDS011;3769;51.208;4.454;2023-06-14T17:32:07;11.5;;;2;;
7454;SDS011;3769;51.208;4.454;2023-06-14T17:37:07;4.8;;;1.8;;
7454;SDS011;3769;51.208;4.454;2023-06-14T17:42:07;3.8;;;1.6;;
7454;SDS011;3769;51.208;4.454;2023-06-14T17:47:07;5.3;;;2;;
7454;SDS011;3769;51.208;4.454;2023-06-14T17:52:07;7.8;;;1.9;;
7454;SDS011;3769;51.208;4.454;2023-06-14T17:57:07;2.4;;;1.5;;
7454;SDS011;3769;51.208;4.454;2023-06-14T18:02:07;5.6;;;1.7;;
7454;SDS011;3769;51.208;4.454;2023-06-14T18:07:07;4.4;;;1.5;;
7454;SDS011;3769;51.208;4.454;2023-06-14T18:12:07;8;;;1.7;;
7454;SDS011;3769;51.208;4.454;2023-06-14T18:17:07;21.7;;;2.5;;
7454;SDS011;3769;51.208;4.454;2023-06-14T18:22:07;2.8;;;1.4;;
7454;SDS011;3769;51.208;4.454;2023-06-14T18:27:07;4.6;;;1.9;;
7454;SDS011;3769;51.208;4.454;2023-06-14T18:32:07;6;;;1.7;;
7454;SDS011;3769;51.208;4.454;2023-06-14T18:37:07;2.7;;;1.9;;
7454;SDS011;3769;51.208;4.454;2023-06-14T18:42:07;10.2;;;1.9;;
7454;SDS011;3769;51.208;4.454;2023-06-14T18:47:07;7.1;;;1.7;;
7454;SDS011;3769;51.208;4.454;2023-06-14T18:52:08;5.7;;;1.5;;
7454;SDS011;3769;51.208;4.454;2023-06-14T18:57:07;40.6;;;2.5;;
7454;SDS011;3769;51.208;4.454;2023-06-14T19:02:07;12.6;;;2;;
7454;SDS011;3769;51.208;4.454;2023-06-14T19:07:07;11;;;1.8;;
7454;SDS011;3769;51.208;4.454;2023-06-14T19:12:07;7.7;;;1.8;;
7454;SDS011;3769;51.208;4.454;2023-06-14T19:17:07;2.9;;;1.6;;
7454;SDS011;3769;51.208;4.454;2023-06-14T19:22:07;3;;;1.7;;
7454;SDS011;3769;51.208;4.454;2023-06-14T19:27:07;10.9;;;2;;
7454;SDS011;3769;51.208;4.454;2023-06-14T19:32:07;4.2;;;1.6;;
7454;SDS011;3769;51.208;4.454;2023-06-14T19:37:07;11.7;;;2.2;;
7454;SDS011;3769;51.208;4.454;2023-06-14T19:42:07;3;;;1.7;;
7454;SDS011;3769;51.208;4.454;2023-06-14T19:47:07;16.6;;;6.9;;
7454;SDS011;3769;51.208;4.454;2023-06-14T19:52:07;19.2;;;2.3;;
7454;SDS011;3769;51.208;4.454;2023-06-14T19:57:13;22;;;3;;
7454;SDS011;3769;51.208;4.454;2023-06-14T20:02:07;7;;;2.2;;
7454;SDS011;3769;51.208;4.454;2023-06-14T20:07:07;6.3;;;1.8;;
7454;SDS011;3769;51.208;4.454;2023-06-14T20:12:07;10.9;;;2.1;;
7454;SDS011;3769;51.208;4.454;2023-06-14T20:17:07;3.9;;;1.8;;
7454;SDS011;3769;51.208;4.454;2023-06-14T20:22:07;6.4;;;1.9;;
7454;SDS011;3769;51.208;4.454;2023-06-14T20:27:07;6.2;;;2;;
7454;SDS011;3769;51.208;4.454;2023-06-14T20:32:07;4.1;;;1.9;;
7454;SDS011;3769;51.208;4.454;2023-06-14T20:37:07;4.8;;;2.1;;
7454;SDS011;3769;51.208;4.454;2023-06-14T20:42:07;8.8;;;2.4;;
7454;SDS011;3769;51.208;4.454;2023-06-14T20:47:08;10.6;;;2.6;;
7454;SDS011;3769;51.208;4.454;2023-06-14T20:52:07;11.5;;;2.4;;
7454;SDS011;3769;51.208;4.454;2023-06-14T20:57:07;5.9;;;2.2;;
7454;SDS011;3769;51.208;4.454;2023-06-14T21:02:07;10.5;;;2.5;;
7454;SDS011;3769;51.208;4.454;2023-06-14T21:07:07;8.7;;;2.5;;
7454;SDS011;3769;51.208;4.454;2023-06-14T21:12:07;9.2;;;3.6;;
7454;SDS011;3769;51.208;4.454;2023-06-14T21:17:07;6.4;;;2.5;;
7454;SDS011;3769;51.208;4.454;2023-06-14T21:22:07;4.1;;;2.3;;
7454;SDS011;3769;51.208;4.454;2023-06-14T21:27:07;10.3;;;2.5;;
7454;SDS011;3769;51.208;4.454;2023-06-14T21:32:09;9.1;;;2.4;;
7454;SDS011;3769;51.208;4.454;2023-06-14T21:37:07;4.8;;;2.6;;
7454;SDS011;3769;51.208;4.454;2023-06-14T21:42:07;12.8;;;2.7;;
7454;SDS011;3769;51.208;4.454;2023-06-14T21:47:07;9.2;;;2.4;;
7454;SDS011;3769;51.208;4.454;2023-06-14T21:52:07;6.3;;;2.3;;
7454;SDS011;3769;51.208;4.454;2023-06-14T21:57:07;10.2;;;2.3;;
7454;SDS011;3769;51.208;4.454;2023-06-14T22:02:07;3.5;;;2.1;;
7454;SDS011;3769;51.208;4.454;2023-06-14T22:07:07;15.4;;;2.4;;
7454;SDS011;3769;51.208;4.454;2023-06-14T22:12:07;7.5;;;2.1;;
7454;SDS011;3769;51.208;4.454;2023-06-14T22:17:07;5.4;;;2.6;;
7454;SDS011;3769;51.208;4.454;2023-06-14T22:22:07;22.6;;;2.8;;
7454;SDS011;3769;51.208;4.454;2023-06-14T22:27:07;10.4;;;2.6;;
7454;SDS011;3769;51.208;4.454;2023-06-14T22:32:07;6.5;;;2.4;;
7454;SDS011;3769;51.208;4.454;2023-06-14T22:37:07;3.2;;;2.3;;
7454;SDS011;3769;51.208;4.454;2023-06-14T22:42:07;5.9;;;3;;
7454;SDS011;3769;51.208;4.454;2023-06-14T22:47:07;8.1;;;3;;
7454;SDS011;3769;51.208;4.454;2023-06-14T22:52:07;6.6;;;2.6;;
7454;SDS011;3769;51.208;4.454;2023-06-14T22:57:07;5.1;;;2.7;;
7454;SDS011;3769;51.208;4.454;2023-06-14T23:02:07;4.8;;;2.6;;
7454;SDS011;3769;51.208;4.454;2023-06-14T23:07:07;4.6;;;2.5;;
7454;SDS011;3769;51.208;4.454;2023-06-14T23:12:07;5;;;2.6;;
7454;SDS011;3769;51.208;4.454;2023-06-14T23:17:07;9.2;;;2.3;;
7454;SDS011;3769;51.208;4.454;2023-06-14T23:22:07;4.8;;;2.6;;
7454;SDS011;3769;51.208;4.454;2023-06-14T23:27:07;4.3;;;2.6;;
7454;SDS011;3769;51.208;4.454;2023-06-14T23:32:07;10.2;;;2.6;;
7454;SDS011;3769;51.208;4.454;2023-06-14T23:37:07;3.4;;;2.6;;
7454;SDS011;3769;51.208;4.454;2023-06-14T23:42:07;6.9;;;2.7;;
7454;SDS011;3769;51.208;4.454;2023-06-14T23:47:07;4.9;;;2.9;;
7454;SDS011;3769;51.208;4.454;2023-06-14T23:52:07;6.6;;;2.9;;
7454;SDS011;3769;51.208;4.454;2023-06-14T23:57:07;7;;;2.7;;
